sensor_id;sensor_type;location;lat;lon;timestamp;P1;durP1;ratioP1;P2;durP2;ratioP2
60819;SDS011;46641;48.904;9.126;2022-07-05T00:02:23;3.67;;;2.60;;
60819;SDS011;46641;48.904;9.126;2022-07-05T00:07:13;2.40;;;2.00;;
60819;SDS011;46641;48.904;9.126;2022-07-05T00:12:10;2.63;;;2.43;;
60819;SDS011;46641;48.904;9.126;2022-07-05T00:17:03;2.90;;;2.53;;
60819;SDS011;46641;48.904;9.126;2022-07-05T00:21:53;2.40;;;2.20;;
60819;SDS011;46641;48.904;9.126;2022-07-05T00:26:44;3.20;;;2.40;;
60819;SDS011;46641;48.904;9.126;2022-07-05T00:31:34;2.97;;;2.77;;
60819;SDS011;46641;48.904;9.126;2022-07-05T00:36:24;2.90;;;2.43;;
60819;SDS011;46641;48.904;9.126;2022-07-05T00:41:15;4.17;;;2.60;;
60819;SDS011;46641;48.904;9.126;2022-07-05T00:46:05;5.20;;;2.53;;
60819;SDS011;46641;48.904;9.126;2022-07-05T00:50:56;4.40;;;2.97;;
60819;SDS011;46641;48.904;9.126;2022-07-05T00:55:47;2.90;;;2.50;;
60819;SDS011;46641;48.904;9.126;2022-07-05T01:00:37;3.13;;;2.50;;
60819;SDS011;46641;48.904;9.126;2022-07-05T01:05:28;4.77;;;2.70;;
60819;SDS011;46641;48.904;9.126;2022-07-05T01:10:19;3.37;;;2.10;;
60819;SDS011;46641;48.904;9.126;2022-07-05T01:15:09;3.77;;;2.60;;
60819;SDS011;46641;48.904;9.126;2022-07-05T01:20:00;3.17;;;2.63;;
60819;SDS011;46641;48.904;9.126;2022-07-05T01:24:51;4.43;;;2.40;;
60819;SDS011;46641;48.904;9.126;2022-07-05T01:29:42;5.73;;;2.93;;
60819;SDS011;46641;48.904;9.126;2022-07-05T01:34:36;5.10;;;2.80;;
60819;SDS011;46641;48.904;9.126;2022-07-05T01:39:28;2.73;;;2.53;;
60819;SDS011;46641;48.904;9.126;2022-07-05T01:44:18;3.57;;;2.43;;
60819;SDS011;46641;48.904;9.126;2022-07-05T01:49:09;3.37;;;2.30;;
60819;SDS011;46641;48.904;9.126;2022-07-05T01:54:03;3.20;;;2.43;;
60819;SDS011;46641;48.904;9.126;2022-07-05T01:58:53;4.37;;;2.57;;
60819;SDS011;46641;48.904;9.126;2022-07-05T02:03:45;3.40;;;2.47;;
60819;SDS011;46641;48.904;9.126;2022-07-05T02:08:35;3.40;;;2.60;;
60819;SDS011;46641;48.904;9.126;2022-07-05T02:13:26;4.10;;;2.63;;
60819;SDS011;46641;48.904;9.126;2022-07-05T02:18:16;2.75;;;2.55;;
60819;SDS011;46641;48.904;9.126;2022-07-05T02:23:06;4.30;;;2.60;;
60819;SDS011;46641;48.904;9.126;2022-07-05T02:27:57;3.23;;;2.90;;
60819;SDS011;46641;48.904;9.126;2022-07-05T02:32:48;2.83;;;2.63;;
60819;SDS011;46641;48.904;9.126;2022-07-05T02:37:38;4.03;;;2.50;;
60819;SDS011;46641;48.904;9.126;2022-07-05T02:42:29;3.23;;;2.77;;
60819;SDS011;46641;48.904;9.126;2022-07-05T02:47:19;2.97;;;2.40;;
60819;SDS011;46641;48.904;9.126;2022-07-05T02:52:10;2.60;;;2.40;;
60819;SDS011;46641;48.904;9.126;2022-07-05T02:57:00;3.93;;;2.70;;
60819;SDS011;46641;48.904;9.126;2022-07-05T03:01:50;3.13;;;2.70;;
60819;SDS011;46641;48.904;9.126;2022-07-05T03:06:41;3.90;;;2.63;;
60819;SDS011;46641;48.904;9.126;2022-07-05T03:11:31;3.00;;;2.80;;
60819;SDS011;46641;48.904;9.126;2022-07-05T03:16:21;4.73;;;2.93;;
60819;SDS011;46641;48.904;9.126;2022-07-05T03:21:15;3.10;;;2.50;;
60819;SDS011;46641;48.904;9.126;2022-07-05T03:26:05;2.67;;;2.47;;
60819;SDS011;46641;48.904;9.126;2022-07-05T03:30:55;4.37;;;2.60;;
60819;SDS011;46641;48.904;9.126;2022-07-05T03:35:46;6.07;;;2.60;;
60819;SDS011;46641;48.904;9.126;2022-07-05T03:40:36;3.90;;;2.90;;
60819;SDS011;46641;48.904;9.126;2022-07-05T03:45:27;2.80;;;2.30;;
60819;SDS011;46641;48.904;9.126;2022-07-05T03:50:17;3.05;;;2.80;;
60819;SDS011;46641;48.904;9.126;2022-07-05T03:55:08;3.97;;;2.40;;
60819;SDS011;46641;48.904;9.126;2022-07-05T03:59:58;6.73;;;3.00;;
60819;SDS011;46641;48.904;9.126;2022-07-05T04:04:49;3.50;;;2.60;;
60819;SDS011;46641;48.904;9.126;2022-07-05T04:09:39;3.90;;;2.50;;
60819;SDS011;46641;48.904;9.126;2022-07-05T04:14:29;4.77;;;2.40;;
60819;SDS011;46641;48.904;9.126;2022-07-05T04:19:20;3.80;;;2.60;;
60819;SDS011;46641;48.904;9.126;2022-07-05T04:24:10;4.00;;;2.60;;
60819;SDS011;46641;48.904;9.126;2022-07-05T04:29:01;2.70;;;2.50;;
60819;SDS011;46641;48.904;9.126;2022-07-05T04:33:51;3.07;;;2.83;;
60819;SDS011;46641;48.904;9.126;2022-07-05T04:38:41;2.97;;;2.73;;
60819;SDS011;46641;48.904;9.126;2022-07-05T04:43:32;3.17;;;2.77;;
60819;SDS011;46641;48.904;9.126;2022-07-05T04:53:26;3.27;;;2.97;;
60819;SDS011;46641;48.904;9.126;2022-07-05T04:58:17;3.00;;;2.67;;
60819;SDS011;46641;48.904;9.126;2022-07-05T05:03:07;2.60;;;2.40;;
60819;SDS011;46641;48.904;9.126;2022-07-05T05:07:57;2.80;;;2.60;;
60819;SDS011;46641;48.904;9.126;2022-07-05T05:12:48;3.20;;;2.87;;
60819;SDS011;46641;48.904;9.126;2022-07-05T05:17:38;4.03;;;3.30;;
60819;SDS011;46641;48.904;9.126;2022-07-05T05:22:30;3.47;;;3.03;;
60819;SDS011;46641;48.904;9.126;2022-07-05T05:27:21;3.47;;;2.73;;
60819;SDS011;46641;48.904;9.126;2022-07-05T05:32:12;2.50;;;2.30;;
60819;SDS011;46641;48.904;9.126;2022-07-05T05:37:03;3.00;;;2.50;;
60819;SDS011;46641;48.904;9.126;2022-07-05T05:41:53;3.33;;;2.87;;
60819;SDS011;46641;48.904;9.126;2022-07-05T05:46:43;4.23;;;2.67;;
60819;SDS011;46641;48.904;9.126;2022-07-05T05:51:34;3.50;;;2.40;;
60819;SDS011;46641;48.904;9.126;2022-07-05T05:56:24;5.70;;;2.83;;
60819;SDS011;46641;48.904;9.126;2022-07-05T06:01:16;3.87;;;2.20;;
60819;SDS011;46641;48.904;9.126;2022-07-05T06:06:07;3.23;;;2.50;;
60819;SDS011;46641;48.904;9.126;2022-07-05T06:10:57;8.30;;;2.97;;
60819;SDS011;46641;48.904;9.126;2022-07-05T06:15:47;4.97;;;2.40;;
60819;SDS011;46641;48.904;9.126;2022-07-05T06:20:38;3.77;;;2.60;;
60819;SDS011;46641;48.904;9.126;2022-07-05T06:25:29;3.90;;;2.70;;
60819;SDS011;46641;48.904;9.126;2022-07-05T06:30:22;3.40;;;2.50;;
60819;SDS011;46641;48.904;9.126;2022-07-05T06:35:14;4.17;;;1.93;;
60819;SDS011;46641;48.904;9.126;2022-07-05T06:40:04;2.70;;;2.10;;
60819;SDS011;46641;48.904;9.126;2022-07-05T06:44:55;3.10;;;1.90;;
60819;SDS011;46641;48.904;9.126;2022-07-05T06:49:45;1.80;;;1.70;;
60819;SDS011;46641;48.904;9.126;2022-07-05T06:54:36;2.40;;;1.40;;
60819;SDS011;46641;48.904;9.126;2022-07-05T06:59:26;1.83;;;1.73;;
60819;SDS011;46641;48.904;9.126;2022-07-05T07:04:16;1.50;;;1.40;;
60819;SDS011;46641;48.904;9.126;2022-07-05T07:09:07;1.97;;;1.77;;
60819;SDS011;46641;48.904;9.126;2022-07-05T07:14:10;2.17;;;1.60;;
60819;SDS011;46641;48.904;9.126;2022-07-05T07:19:01;1.60;;;1.50;;
60819;SDS011;46641;48.904;9.126;2022-07-05T07:23:51;2.90;;;1.70;;
60819;SDS011;46641;48.904;9.126;2022-07-05T07:28:42;3.17;;;1.47;;
60819;SDS011;46641;48.904;9.126;2022-07-05T07:33:32;2.00;;;1.63;;
60819;SDS011;46641;48.904;9.126;2022-07-05T07:38:23;1.87;;;1.70;;
60819;SDS011;46641;48.904;9.126;2022-07-05T07:43:14;1.70;;;1.50;;
60819;SDS011;46641;48.904;9.126;2022-07-05T07:48:04;2.23;;;1.70;;
60819;SDS011;46641;48.904;9.126;2022-07-05T07:52:55;1.67;;;1.57;;
60819;SDS011;46641;48.904;9.126;2022-07-05T07:57:45;4.07;;;1.90;;
60819;SDS011;46641;48.904;9.126;2022-07-05T08:02:35;2.47;;;2.17;;
60819;SDS011;46641;48.904;9.126;2022-07-05T08:07:26;2.83;;;1.80;;
60819;SDS011;46641;48.904;9.126;2022-07-05T08:12:16;2.03;;;1.83;;
60819;SDS011;46641;48.904;9.126;2022-07-05T08:17:06;1.70;;;1.60;;
60819;SDS011;46641;48.904;9.126;2022-07-05T08:21:58;3.03;;;1.90;;
60819;SDS011;46641;48.904;9.126;2022-07-05T08:26:49;2.70;;;1.70;;
60819;SDS011;46641;48.904;9.126;2022-07-05T08:31:43;3.47;;;1.60;;
60819;SDS011;46641;48.904;9.126;2022-07-05T08:36:35;3.37;;;1.60;;
60819;SDS011;46641;48.904;9.126;2022-07-05T08:41:25;1.27;;;1.27;;
60819;SDS011;46641;48.904;9.126;2022-07-05T08:46:17;3.23;;;1.70;;
60819;SDS011;46641;48.904;9.126;2022-07-05T08:51:09;1.80;;;1.70;;
60819;SDS011;46641;48.904;9.126;2022-07-05T08:56:02;1.63;;;1.53;;
60819;SDS011;46641;48.904;9.126;2022-07-05T09:00:53;1.83;;;1.57;;
60819;SDS011;46641;48.904;9.126;2022-07-05T09:05:43;2.10;;;1.70;;
60819;SDS011;46641;48.904;9.126;2022-07-05T09:10:35;1.57;;;1.47;;
60819;SDS011;46641;48.904;9.126;2022-07-05T09:15:27;1.60;;;1.50;;
60819;SDS011;46641;48.904;9.126;2022-07-05T09:20:18;3.60;;;1.77;;
60819;SDS011;46641;48.904;9.126;2022-07-05T09:25:51;2.57;;;1.37;;
60819;SDS011;46641;48.904;9.126;2022-07-05T09:30:23;4.03;;;1.60;;
60819;SDS011;46641;48.904;9.126;2022-07-05T09:35:19;1.77;;;1.63;;
60819;SDS011;46641;48.904;9.126;2022-07-05T09:40:10;2.40;;;1.60;;
60819;SDS011;46641;48.904;9.126;2022-07-05T09:45:00;2.00;;;1.20;;
60819;SDS011;46641;48.904;9.126;2022-07-05T09:49:51;4.23;;;1.53;;
60819;SDS011;46641;48.904;9.126;2022-07-05T09:54:42;2.93;;;1.20;;
60819;SDS011;46641;48.904;9.126;2022-07-05T09:59:57;3.17;;;1.50;;
60819;SDS011;46641;48.904;9.126;2022-07-05T10:04:48;2.27;;;1.60;;
60819;SDS011;46641;48.904;9.126;2022-07-05T10:09:57;1.93;;;1.33;;
60819;SDS011;46641;48.904;9.126;2022-07-05T10:14:47;2.73;;;1.50;;
60819;SDS011;46641;48.904;9.126;2022-07-05T10:19:38;1.93;;;1.50;;
60819;SDS011;46641;48.904;9.126;2022-07-05T10:24:32;1.97;;;1.20;;
60819;SDS011;46641;48.904;9.126;2022-07-05T10:29:24;2.13;;;1.20;;
60819;SDS011;46641;48.904;9.126;2022-07-05T10:34:15;2.77;;;1.30;;
60819;SDS011;46641;48.904;9.126;2022-07-05T10:39:07;2.63;;;1.30;;
60819;SDS011;46641;48.904;9.126;2022-07-05T10:43:58;1.73;;;1.20;;
60819;SDS011;46641;48.904;9.126;2022-07-05T10:48:49;3.33;;;1.37;;
60819;SDS011;46641;48.904;9.126;2022-07-05T10:54:00;1.30;;;1.15;;
60819;SDS011;46641;48.904;9.126;2022-07-05T10:59:03;1.63;;;1.33;;
60819;SDS011;46641;48.904;9.126;2022-07-05T11:04:05;1.88;;;1.30;;
60819;SDS011;46641;48.904;9.126;2022-07-05T11:14:02;1.27;;;1.23;;
60819;SDS011;46641;48.904;9.126;2022-07-05T11:34:35;1.55;;;1.10;;
60819;SDS011;46641;48.904;9.126;2022-07-05T11:39:27;1.58;;;1.27;;
60819;SDS011;46641;48.904;9.126;2022-07-05T11:44:17;1.42;;;1.20;;
60819;SDS011;46641;48.904;9.126;2022-07-05T11:49:07;1.70;;;1.20;;
60819;SDS011;46641;48.904;9.126;2022-07-05T11:53:58;1.20;;;1.10;;
60819;SDS011;46641;48.904;9.126;2022-07-05T11:58:48;2.70;;;1.10;;
60819;SDS011;46641;48.904;9.126;2022-07-05T12:03:39;2.35;;;1.50;;
60819;SDS011;46641;48.904;9.126;2022-07-05T12:08:30;1.77;;;1.30;;
60819;SDS011;46641;48.904;9.126;2022-07-05T12:13:21;3.22;;;1.20;;
60819;SDS011;46641;48.904;9.126;2022-07-05T12:18:12;1.50;;;1.30;;
60819;SDS011;46641;48.904;9.126;2022-07-05T12:23:03;1.38;;;1.27;;
60819;SDS011;46641;48.904;9.126;2022-07-05T12:27:54;2.45;;;1.30;;
60819;SDS011;46641;48.904;9.126;2022-07-05T12:32:56;1.48;;;1.38;;
60819;SDS011;46641;48.904;9.126;2022-07-05T12:37:47;1.83;;;1.33;;
60819;SDS011;46641;48.904;9.126;2022-07-05T12:42:38;2.90;;;1.42;;
60819;SDS011;46641;48.904;9.126;2022-07-05T12:47:29;1.20;;;1.10;;
60819;SDS011;46641;48.904;9.126;2022-07-05T12:52:27;1.00;;;1.00;;
60819;SDS011;46641;48.904;9.126;2022-07-05T12:57:17;1.77;;;1.42;;
60819;SDS011;46641;48.904;9.126;2022-07-05T13:02:33;4.25;;;1.77;;
60819;SDS011;46641;48.904;9.126;2022-07-05T13:07:30;3.95;;;1.40;;
60819;SDS011;46641;48.904;9.126;2022-07-05T13:12:20;3.50;;;1.58;;
60819;SDS011;46641;48.904;9.126;2022-07-05T13:17:12;2.08;;;1.67;;
60819;SDS011;46641;48.904;9.126;2022-07-05T13:22:03;1.65;;;1.20;;
60819;SDS011;46641;48.904;9.126;2022-07-05T13:26:55;1.52;;;1.35;;
60819;SDS011;46641;48.904;9.126;2022-07-05T13:31:45;2.55;;;1.48;;
60819;SDS011;46641;48.904;9.126;2022-07-05T13:36:36;3.78;;;2.20;;
60819;SDS011;46641;48.904;9.126;2022-07-05T13:41:26;1.10;;;1.10;;
60819;SDS011;46641;48.904;9.126;2022-07-05T13:46:16;1.90;;;1.30;;
60819;SDS011;46641;48.904;9.126;2022-07-05T13:51:07;2.13;;;1.50;;
60819;SDS011;46641;48.904;9.126;2022-07-05T13:55:57;2.22;;;1.58;;
60819;SDS011;46641;48.904;9.126;2022-07-05T14:00:48;2.25;;;1.10;;
60819;SDS011;46641;48.904;9.126;2022-07-05T14:05:39;2.15;;;1.58;;
60819;SDS011;46641;48.904;9.126;2022-07-05T14:10:29;3.08;;;1.40;;
60819;SDS011;46641;48.904;9.126;2022-07-05T14:15:19;2.63;;;1.42;;
60819;SDS011;46641;48.904;9.126;2022-07-05T14:20:10;2.22;;;1.40;;
60819;SDS011;46641;48.904;9.126;2022-07-05T14:25:00;2.15;;;1.30;;
60819;SDS011;46641;48.904;9.126;2022-07-05T14:29:51;1.42;;;1.33;;
60819;SDS011;46641;48.904;9.126;2022-07-05T14:34:41;2.65;;;1.27;;
60819;SDS011;46641;48.904;9.126;2022-07-05T14:39:31;1.80;;;1.60;;
60819;SDS011;46641;48.904;9.126;2022-07-05T14:44:22;1.77;;;1.55;;
60819;SDS011;46641;48.904;9.126;2022-07-05T14:49:12;2.33;;;1.60;;
60819;SDS011;46641;48.904;9.126;2022-07-05T14:54:02;2.88;;;1.52;;
60819;SDS011;46641;48.904;9.126;2022-07-05T14:58:53;1.77;;;1.67;;
60819;SDS011;46641;48.904;9.126;2022-07-05T15:03:43;2.30;;;1.55;;
60819;SDS011;46641;48.904;9.126;2022-07-05T15:08:34;2.33;;;1.57;;
60819;SDS011;46641;48.904;9.126;2022-07-05T15:13:25;1.48;;;1.40;;
60819;SDS011;46641;48.904;9.126;2022-07-05T15:18:16;1.92;;;1.55;;
60819;SDS011;46641;48.904;9.126;2022-07-05T15:23:07;2.20;;;1.50;;
60819;SDS011;46641;48.904;9.126;2022-07-05T15:27:57;1.40;;;1.30;;
60819;SDS011;46641;48.904;9.126;2022-07-05T15:32:48;1.77;;;1.67;;
60819;SDS011;46641;48.904;9.126;2022-07-05T15:37:38;2.72;;;1.35;;
60819;SDS011;46641;48.904;9.126;2022-07-05T15:42:29;3.50;;;1.80;;
60819;SDS011;46641;48.904;9.126;2022-07-05T15:47:19;2.08;;;1.60;;
60819;SDS011;46641;48.904;9.126;2022-07-05T15:52:09;1.63;;;1.52;;
60819;SDS011;46641;48.904;9.126;2022-07-05T15:57:00;2.63;;;1.42;;
60819;SDS011;46641;48.904;9.126;2022-07-05T16:01:50;1.88;;;1.27;;
60819;SDS011;46641;48.904;9.126;2022-07-05T16:06:41;2.83;;;1.48;;
60819;SDS011;46641;48.904;9.126;2022-07-05T16:11:32;2.65;;;1.60;;
60819;SDS011;46641;48.904;9.126;2022-07-05T16:16:22;1.52;;;1.27;;
60819;SDS011;46641;48.904;9.126;2022-07-05T16:21:14;2.05;;;1.30;;
60819;SDS011;46641;48.904;9.126;2022-07-05T16:26:05;2.92;;;1.55;;
60819;SDS011;46641;48.904;9.126;2022-07-05T16:31:00;1.63;;;1.40;;
60819;SDS011;46641;48.904;9.126;2022-07-05T16:35:54;1.70;;;1.60;;
60819;SDS011;46641;48.904;9.126;2022-07-05T16:40:45;1.63;;;1.52;;
60819;SDS011;46641;48.904;9.126;2022-07-05T16:45:35;4.30;;;1.50;;
60819;SDS011;46641;48.904;9.126;2022-07-05T16:50:25;2.17;;;1.43;;
60819;SDS011;46641;48.904;9.126;2022-07-05T16:55:16;2.30;;;1.30;;
60819;SDS011;46641;48.904;9.126;2022-07-05T17:00:06;1.30;;;1.23;;
60819;SDS011;46641;48.904;9.126;2022-07-05T17:04:57;2.60;;;1.40;;
60819;SDS011;46641;48.904;9.126;2022-07-05T17:09:47;3.10;;;1.70;;
60819;SDS011;46641;48.904;9.126;2022-07-05T17:14:37;1.55;;;1.40;;
60819;SDS011;46641;48.904;9.126;2022-07-05T17:19:28;1.98;;;1.50;;
60819;SDS011;46641;48.904;9.126;2022-07-05T17:24:18;2.08;;;1.63;;
60819;SDS011;46641;48.904;9.126;2022-07-05T17:29:09;2.05;;;1.50;;
60819;SDS011;46641;48.904;9.126;2022-07-05T17:33:59;1.80;;;1.65;;
60819;SDS011;46641;48.904;9.126;2022-07-05T17:38:50;2.20;;;1.70;;
60819;SDS011;46641;48.904;9.126;2022-07-05T17:43:41;2.40;;;1.38;;
60819;SDS011;46641;48.904;9.126;2022-07-05T17:48:35;1.45;;;1.23;;
60819;SDS011;46641;48.904;9.126;2022-07-05T17:53:25;1.90;;;1.52;;
60819;SDS011;46641;48.904;9.126;2022-07-05T17:58:16;1.77;;;1.55;;
60819;SDS011;46641;48.904;9.126;2022-07-05T18:03:06;2.00;;;1.85;;
60819;SDS011;46641;48.904;9.126;2022-07-05T18:07:56;2.13;;;1.73;;
60819;SDS011;46641;48.904;9.126;2022-07-05T18:12:47;2.05;;;1.65;;
60819;SDS011;46641;48.904;9.126;2022-07-05T18:17:38;1.60;;;1.27;;
60819;SDS011;46641;48.904;9.126;2022-07-05T18:22:28;2.45;;;1.48;;
60819;SDS011;46641;48.904;9.126;2022-07-05T18:27:18;2.40;;;1.42;;
60819;SDS011;46641;48.904;9.126;2022-07-05T18:32:09;4.68;;;1.77;;
60819;SDS011;46641;48.904;9.126;2022-07-05T18:36:59;2.10;;;1.42;;
60819;SDS011;46641;48.904;9.126;2022-07-05T18:41:49;1.85;;;1.50;;
60819;SDS011;46641;48.904;9.126;2022-07-05T18:46:40;5.30;;;1.75;;
60819;SDS011;46641;48.904;9.126;2022-07-05T18:51:31;1.50;;;1.40;;
60819;SDS011;46641;48.904;9.126;2022-07-05T18:56:21;2.33;;;1.67;;
60819;SDS011;46641;48.904;9.126;2022-07-05T19:01:12;2.63;;;1.58;;
60819;SDS011;46641;48.904;9.126;2022-07-05T19:06:02;1.60;;;1.50;;
60819;SDS011;46641;48.904;9.126;2022-07-05T19:11:11;4.13;;;1.90;;
60819;SDS011;46641;48.904;9.126;2022-07-05T19:16:20;2.38;;;1.75;;
60819;SDS011;46641;48.904;9.126;2022-07-05T19:21:11;2.38;;;1.60;;
60819;SDS011;46641;48.904;9.126;2022-07-05T19:26:01;2.92;;;1.80;;
60819;SDS011;46641;48.904;9.126;2022-07-05T19:30:51;1.98;;;1.50;;
60819;SDS011;46641;48.904;9.126;2022-07-05T19:35:42;2.00;;;1.55;;
60819;SDS011;46641;48.904;9.126;2022-07-05T19:40:32;1.85;;;1.55;;
60819;SDS011;46641;48.904;9.126;2022-07-05T19:45:23;1.77;;;1.67;;
60819;SDS011;46641;48.904;9.126;2022-07-05T19:50:14;1.83;;;1.52;;
60819;SDS011;46641;48.904;9.126;2022-07-05T19:55:05;3.05;;;1.77;;
60819;SDS011;46641;48.904;9.126;2022-07-05T19:59:55;2.72;;;1.75;;
60819;SDS011;46641;48.904;9.126;2022-07-05T20:04:46;3.47;;;1.80;;
60819;SDS011;46641;48.904;9.126;2022-07-05T20:09:36;2.63;;;1.48;;
60819;SDS011;46641;48.904;9.126;2022-07-05T20:14:26;3.38;;;1.75;;
60819;SDS011;46641;48.904;9.126;2022-07-05T20:19:18;2.85;;;1.70;;
60819;SDS011;46641;48.904;9.126;2022-07-05T20:24:09;2.55;;;1.88;;
60819;SDS011;46641;48.904;9.126;2022-07-05T20:28:59;1.60;;;1.50;;
60819;SDS011;46641;48.904;9.126;2022-07-05T20:33:50;1.63;;;1.50;;
60819;SDS011;46641;48.904;9.126;2022-07-05T20:38:42;1.48;;;1.38;;
60819;SDS011;46641;48.904;9.126;2022-07-05T20:43:32;2.10;;;1.88;;
60819;SDS011;46641;48.904;9.126;2022-07-05T20:48:22;2.38;;;1.83;;
60819;SDS011;46641;48.904;9.126;2022-07-05T20:53:13;2.33;;;1.70;;
60819;SDS011;46641;48.904;9.126;2022-07-05T20:58:03;3.03;;;1.80;;
60819;SDS011;46641;48.904;9.126;2022-07-05T21:02:54;1.95;;;1.83;;
60819;SDS011;46641;48.904;9.126;2022-07-05T21:07:44;1.73;;;1.60;;
60819;SDS011;46641;48.904;9.126;2022-07-05T21:12:34;2.67;;;1.60;;
60819;SDS011;46641;48.904;9.126;2022-07-05T21:17:24;3.72;;;2.45;;
60819;SDS011;46641;48.904;9.126;2022-07-05T21:22:15;2.20;;;1.60;;
60819;SDS011;46641;48.904;9.126;2022-07-05T21:27:05;4.93;;;2.03;;
60819;SDS011;46641;48.904;9.126;2022-07-05T21:31:55;1.87;;;1.70;;
60819;SDS011;46641;48.904;9.126;2022-07-05T21:36:46;3.43;;;1.80;;
60819;SDS011;46641;48.904;9.126;2022-07-05T21:41:37;2.37;;;1.60;;
60819;SDS011;46641;48.904;9.126;2022-07-05T21:46:28;2.60;;;2.03;;
60819;SDS011;46641;48.904;9.126;2022-07-05T21:51:18;2.83;;;1.83;;
60819;SDS011;46641;48.904;9.126;2022-07-05T21:56:09;2.17;;;1.80;;
60819;SDS011;46641;48.904;9.126;2022-07-05T22:00:59;3.40;;;1.60;;
60819;SDS011;46641;48.904;9.126;2022-07-05T22:06:08;2.10;;;1.63;;
60819;SDS011;46641;48.904;9.126;2022-07-05T22:10:58;3.07;;;1.70;;
60819;SDS011;46641;48.904;9.126;2022-07-05T22:16:11;3.07;;;1.87;;
60819;SDS011;46641;48.904;9.126;2022-07-05T22:21:01;2.97;;;1.93;;
60819;SDS011;46641;48.904;9.126;2022-07-05T22:25:52;2.00;;;1.67;;
60819;SDS011;46641;48.904;9.126;2022-07-05T22:30:43;2.90;;;1.83;;
60819;SDS011;46641;48.904;9.126;2022-07-05T22:35:33;5.63;;;1.70;;
60819;SDS011;46641;48.904;9.126;2022-07-05T22:40:23;2.10;;;1.70;;
60819;SDS011;46641;48.904;9.126;2022-07-05T22:45:13;2.00;;;1.87;;
60819;SDS011;46641;48.904;9.126;2022-07-05T22:50:04;3.67;;;2.17;;
60819;SDS011;46641;48.904;9.126;2022-07-05T22:54:55;3.10;;;1.90;;
60819;SDS011;46641;48.904;9.126;2022-07-05T22:59:45;2.20;;;2.00;;
60819;SDS011;46641;48.904;9.126;2022-07-05T23:04:36;2.37;;;1.60;;
60819;SDS011;46641;48.904;9.126;2022-07-05T23:09:26;3.20;;;2.17;;
60819;SDS011;46641;48.904;9.126;2022-07-05T23:14:16;2.43;;;1.90;;
60819;SDS011;46641;48.904;9.126;2022-07-05T23:19:07;4.13;;;2.23;;
60819;SDS011;46641;48.904;9.126;2022-07-05T23:23:57;2.40;;;2.17;;
60819;SDS011;46641;48.904;9.126;2022-07-05T23:29:06;2.47;;;2.27;;
60819;SDS011;46641;48.904;9.126;2022-07-05T23:33:56;2.70;;;2.07;;
60819;SDS011;46641;48.904;9.126;2022-07-05T23:38:46;2.40;;;2.10;;
60819;SDS011;46641;48.904;9.126;2022-07-05T23:43:37;4.53;;;2.00;;
60819;SDS011;46641;48.904;9.126;2022-07-05T23:48:27;2.57;;;2.27;;
60819;SDS011;46641;48.904;9.126;2022-07-05T23:53:17;2.57;;;2.37;;
60819;SDS011;46641;48.904;9.126;2022-07-05T23:58:07;3.97;;;2.60;;
